sensor_id;sensor_type;location;lat;lon;timestamp;P1;durP1;ratioP1;P2;durP2;ratioP2
56041;SDS011;48756;41.374;2.066;2023-02-11T00:01:34;9.00;;;5.23;;
56041;SDS011;48756;41.374;2.066;2023-02-11T00:06:27;8.10;;;5.47;;
56041;SDS011;48756;41.374;2.066;2023-02-11T00:08:54;9.93;;;7.28;;
56041;SDS011;48756;41.374;2.066;2023-02-11T00:13:46;12.30;;;8.73;;
56041;SDS011;48756;41.374;2.066;2023-02-11T00:16:13;10.32;;;8.20;;
56041;SDS011;48756;41.374;2.066;2023-02-11T00:18:41;7.35;;;6.22;;
56041;SDS011;48756;41.374;2.066;2023-02-11T00:21:11;9.32;;;6.03;;
56041;SDS011;48756;41.374;2.066;2023-02-11T00:23:42;7.40;;;6.47;;
56041;SDS011;48756;41.374;2.066;2023-02-11T00:26:15;13.40;;;7.95;;
56041;SDS011;48756;41.374;2.066;2023-02-11T00:28:43;10.02;;;7.03;;
56041;SDS011;48756;41.374;2.066;2023-02-11T00:31:09;8.85;;;6.25;;
56041;SDS011;48756;41.374;2.066;2023-02-11T00:36:08;9.60;;;6.85;;
56041;SDS011;48756;41.374;2.066;2023-02-11T00:38:37;10.40;;;5.55;;
56041;SDS011;48756;41.374;2.066;2023-02-11T00:41:03;9.23;;;5.90;;
56041;SDS011;48756;41.374;2.066;2023-02-11T00:43:28;8.30;;;6.90;;
56041;SDS011;48756;41.374;2.066;2023-02-11T00:45:54;7.37;;;6.63;;
56041;SDS011;48756;41.374;2.066;2023-02-11T00:48:23;11.82;;;6.68;;
56041;SDS011;48756;41.374;2.066;2023-02-11T00:50:48;9.03;;;6.93;;
56041;SDS011;48756;41.374;2.066;2023-02-11T00:53:14;9.60;;;7.50;;
56041;SDS011;48756;41.374;2.066;2023-02-11T00:55:39;8.97;;;5.70;;
56041;SDS011;48756;41.374;2.066;2023-02-11T00:58:05;9.37;;;7.77;;
56041;SDS011;48756;41.374;2.066;2023-02-11T01:00:30;10.43;;;6.60;;
56041;SDS011;48756;41.374;2.066;2023-02-11T01:02:56;8.70;;;6.40;;
56041;SDS011;48756;41.374;2.066;2023-02-11T01:05:21;7.40;;;6.70;;
56041;SDS011;48756;41.374;2.066;2023-02-11T01:07:47;11.52;;;6.90;;
56041;SDS011;48756;41.374;2.066;2023-02-11T01:10:13;10.80;;;6.90;;
56041;SDS011;48756;41.374;2.066;2023-02-11T01:12:38;7.68;;;6.03;;
56041;SDS011;48756;41.374;2.066;2023-02-11T01:15:05;10.98;;;6.65;;
56041;SDS011;48756;41.374;2.066;2023-02-11T01:17:32;10.65;;;5.95;;
56041;SDS011;48756;41.374;2.066;2023-02-11T01:20:00;11.95;;;6.15;;
56041;SDS011;48756;41.374;2.066;2023-02-11T01:22:29;7.10;;;5.35;;
56041;SDS011;48756;41.374;2.066;2023-02-11T01:24:54;9.93;;;7.63;;
56041;SDS011;48756;41.374;2.066;2023-02-11T01:27:20;9.83;;;5.90;;
56041;SDS011;48756;41.374;2.066;2023-02-11T01:29:45;8.30;;;5.65;;
56041;SDS011;48756;41.374;2.066;2023-02-11T01:32:11;8.60;;;5.90;;
56041;SDS011;48756;41.374;2.066;2023-02-11T01:34:36;8.60;;;6.47;;
56041;SDS011;48756;41.374;2.066;2023-02-11T01:37:02;9.80;;;6.50;;
56041;SDS011;48756;41.374;2.066;2023-02-11T01:39:27;8.43;;;5.67;;
56041;SDS011;48756;41.374;2.066;2023-02-11T01:41:53;14.27;;;7.63;;
56041;SDS011;48756;41.374;2.066;2023-02-11T01:46:47;8.25;;;5.40;;
56041;SDS011;48756;41.374;2.066;2023-02-11T01:49:20;11.40;;;6.97;;
56041;SDS011;48756;41.374;2.066;2023-02-11T01:51:53;7.85;;;5.18;;
56041;SDS011;48756;41.374;2.066;2023-02-11T01:54:23;7.35;;;6.18;;
56041;SDS011;48756;41.374;2.066;2023-02-11T01:57:15;8.52;;;5.90;;
56041;SDS011;48756;41.374;2.066;2023-02-11T02:02:18;11.47;;;7.33;;
56041;SDS011;48756;41.374;2.066;2023-02-11T02:04:56;7.88;;;6.05;;
56041;SDS011;48756;41.374;2.066;2023-02-11T02:07:46;11.00;;;7.57;;
56041;SDS011;48756;41.374;2.066;2023-02-11T02:10:19;11.63;;;6.63;;
56041;SDS011;48756;41.374;2.066;2023-02-11T02:12:46;7.32;;;5.15;;
56041;SDS011;48756;41.374;2.066;2023-02-11T02:17:57;8.13;;;5.35;;
56041;SDS011;48756;41.374;2.066;2023-02-11T02:31:41;8.48;;;5.97;;
56041;SDS011;48756;41.374;2.066;2023-02-11T02:34:43;7.47;;;5.90;;
56041;SDS011;48756;41.374;2.066;2023-02-11T02:37:13;19.08;;;6.80;;
56041;SDS011;48756;41.374;2.066;2023-02-11T02:39:48;10.38;;;6.35;;
56041;SDS011;48756;41.374;2.066;2023-02-11T02:42:15;8.90;;;5.95;;
56041;SDS011;48756;41.374;2.066;2023-02-11T02:44:47;11.05;;;5.78;;
56041;SDS011;48756;41.374;2.066;2023-02-11T02:47:16;12.80;;;7.25;;
56041;SDS011;48756;41.374;2.066;2023-02-11T02:49:42;8.77;;;5.43;;
56041;SDS011;48756;41.374;2.066;2023-02-11T03:00:19;7.50;;;5.60;;
56041;SDS011;48756;41.374;2.066;2023-02-11T03:08:16;9.27;;;5.55;;
56041;SDS011;48756;41.374;2.066;2023-02-11T03:10:49;10.27;;;5.80;;
56041;SDS011;48756;41.374;2.066;2023-02-11T03:13:17;4.85;;;4.18;;
56041;SDS011;48756;41.374;2.066;2023-02-11T03:15:47;7.40;;;5.60;;
56041;SDS011;48756;41.374;2.066;2023-02-11T03:18:19;6.47;;;5.63;;
56041;SDS011;48756;41.374;2.066;2023-02-11T03:20:49;19.77;;;6.18;;
56041;SDS011;48756;41.374;2.066;2023-02-11T03:23:20;8.50;;;5.72;;
56041;SDS011;48756;41.374;2.066;2023-02-11T03:25:57;7.53;;;6.05;;
56041;SDS011;48756;41.374;2.066;2023-02-11T03:29:16;11.75;;;7.40;;
56041;SDS011;48756;41.374;2.066;2023-02-11T03:34:28;9.30;;;6.18;;
56041;SDS011;48756;41.374;2.066;2023-02-11T03:37:01;10.88;;;6.60;;
56041;SDS011;48756;41.374;2.066;2023-02-11T03:39:35;10.52;;;5.57;;
56041;SDS011;48756;41.374;2.066;2023-02-11T03:42:04;8.48;;;5.75;;
56041;SDS011;48756;41.374;2.066;2023-02-11T03:44:34;9.25;;;6.78;;
56041;SDS011;48756;41.374;2.066;2023-02-11T03:47:04;8.82;;;5.57;;
56041;SDS011;48756;41.374;2.066;2023-02-11T03:49:34;7.00;;;5.78;;
56041;SDS011;48756;41.374;2.066;2023-02-11T03:52:02;13.15;;;6.63;;
56041;SDS011;48756;41.374;2.066;2023-02-11T03:54:31;8.07;;;5.85;;
56041;SDS011;48756;41.374;2.066;2023-02-11T03:56:59;9.15;;;4.78;;
56041;SDS011;48756;41.374;2.066;2023-02-11T03:59:26;10.27;;;6.47;;
56041;SDS011;48756;41.374;2.066;2023-02-11T04:01:52;9.63;;;7.50;;
56041;SDS011;48756;41.374;2.066;2023-02-11T04:04:19;9.00;;;5.95;;
56041;SDS011;48756;41.374;2.066;2023-02-11T04:06:44;11.43;;;7.28;;
56041;SDS011;48756;41.374;2.066;2023-02-11T04:09:13;9.83;;;7.27;;
56041;SDS011;48756;41.374;2.066;2023-02-11T04:11:39;7.57;;;6.55;;
56041;SDS011;48756;41.374;2.066;2023-02-11T04:14:04;10.90;;;9.00;;
56041;SDS011;48756;41.374;2.066;2023-02-11T04:16:30;10.67;;;8.00;;
56041;SDS011;48756;41.374;2.066;2023-02-11T04:18:55;14.53;;;8.67;;
56041;SDS011;48756;41.374;2.066;2023-02-11T04:21:21;9.13;;;6.50;;
56041;SDS011;48756;41.374;2.066;2023-02-11T04:23:47;10.27;;;6.53;;
56041;SDS011;48756;41.374;2.066;2023-02-11T04:26:13;10.68;;;6.97;;
56041;SDS011;48756;41.374;2.066;2023-02-11T04:28:38;9.65;;;6.55;;
56041;SDS011;48756;41.374;2.066;2023-02-11T04:31:04;18.53;;;8.10;;
56041;SDS011;48756;41.374;2.066;2023-02-11T04:33:30;13.30;;;8.40;;
56041;SDS011;48756;41.374;2.066;2023-02-11T04:35:55;13.02;;;7.22;;
56041;SDS011;48756;41.374;2.066;2023-02-11T04:38:21;9.27;;;5.60;;
56041;SDS011;48756;41.374;2.066;2023-02-11T04:40:48;11.43;;;7.40;;
56041;SDS011;48756;41.374;2.066;2023-02-11T04:43:14;14.90;;;9.23;;
56041;SDS011;48756;41.374;2.066;2023-02-11T04:45:39;12.10;;;6.73;;
56041;SDS011;48756;41.374;2.066;2023-02-11T04:48:05;9.03;;;7.50;;
56041;SDS011;48756;41.374;2.066;2023-02-11T04:50:31;20.97;;;8.17;;
56041;SDS011;48756;41.374;2.066;2023-02-11T04:52:56;9.50;;;6.50;;
56041;SDS011;48756;41.374;2.066;2023-02-11T04:55:22;9.77;;;6.23;;
56041;SDS011;48756;41.374;2.066;2023-02-11T04:57:47;8.87;;;6.43;;
56041;SDS011;48756;41.374;2.066;2023-02-11T05:00:13;9.27;;;7.70;;
56041;SDS011;48756;41.374;2.066;2023-02-11T05:02:42;8.13;;;5.97;;
56041;SDS011;48756;41.374;2.066;2023-02-11T05:05:07;8.43;;;6.95;;
56041;SDS011;48756;41.374;2.066;2023-02-11T05:07:33;10.03;;;6.60;;
56041;SDS011;48756;41.374;2.066;2023-02-11T05:09:58;10.67;;;7.23;;
56041;SDS011;48756;41.374;2.066;2023-02-11T05:12:24;11.10;;;6.57;;
56041;SDS011;48756;41.374;2.066;2023-02-11T05:14:49;9.77;;;7.27;;
56041;SDS011;48756;41.374;2.066;2023-02-11T05:17:15;11.00;;;8.47;;
56041;SDS011;48756;41.374;2.066;2023-02-11T05:19:41;9.97;;;6.97;;
56041;SDS011;48756;41.374;2.066;2023-02-11T05:22:06;13.32;;;6.55;;
56041;SDS011;48756;41.374;2.066;2023-02-11T05:24:32;7.70;;;5.50;;
56041;SDS011;48756;41.374;2.066;2023-02-11T05:26:58;9.00;;;5.75;;
56041;SDS011;48756;41.374;2.066;2023-02-11T05:29:24;10.50;;;6.53;;
56041;SDS011;48756;41.374;2.066;2023-02-11T05:31:50;8.07;;;4.63;;
56041;SDS011;48756;41.374;2.066;2023-02-11T05:34:15;6.93;;;5.13;;
56041;SDS011;48756;41.374;2.066;2023-02-11T05:36:41;7.00;;;5.90;;
56041;SDS011;48756;41.374;2.066;2023-02-11T05:39:06;7.13;;;5.20;;
56041;SDS011;48756;41.374;2.066;2023-02-11T05:41:32;8.70;;;6.27;;
56041;SDS011;48756;41.374;2.066;2023-02-11T05:43:57;9.20;;;7.10;;
56041;SDS011;48756;41.374;2.066;2023-02-11T05:46:23;8.07;;;6.07;;
56041;SDS011;48756;41.374;2.066;2023-02-11T05:48:49;8.60;;;6.00;;
56041;SDS011;48756;41.374;2.066;2023-02-11T05:53:40;9.32;;;6.95;;
56041;SDS011;48756;41.374;2.066;2023-02-11T05:56:06;10.60;;;5.93;;
56041;SDS011;48756;41.374;2.066;2023-02-11T05:58:32;5.45;;;4.90;;
56041;SDS011;48756;41.374;2.066;2023-02-11T06:00:57;7.93;;;6.47;;
56041;SDS011;48756;41.374;2.066;2023-02-11T06:03:26;10.63;;;6.20;;
56041;SDS011;48756;41.374;2.066;2023-02-11T06:05:51;9.30;;;5.30;;
56041;SDS011;48756;41.374;2.066;2023-02-11T06:08:17;7.60;;;5.37;;
56041;SDS011;48756;41.374;2.066;2023-02-11T06:10:45;8.83;;;6.73;;
56041;SDS011;48756;41.374;2.066;2023-02-11T06:13:11;9.57;;;7.35;;
56041;SDS011;48756;41.374;2.066;2023-02-11T06:15:37;7.22;;;4.80;;
56041;SDS011;48756;41.374;2.066;2023-02-11T06:20:28;9.05;;;5.45;;
56041;SDS011;48756;41.374;2.066;2023-02-11T06:22:54;9.88;;;7.32;;
56041;SDS011;48756;41.374;2.066;2023-02-11T06:25:20;7.00;;;5.70;;
56041;SDS011;48756;41.374;2.066;2023-02-11T06:27:45;9.65;;;6.45;;
56041;SDS011;48756;41.374;2.066;2023-02-11T06:30:11;8.70;;;6.53;;
56041;SDS011;48756;41.374;2.066;2023-02-11T06:32:37;23.23;;;8.30;;
56041;SDS011;48756;41.374;2.066;2023-02-11T06:35:03;12.60;;;7.27;;
56041;SDS011;48756;41.374;2.066;2023-02-11T06:37:29;11.70;;;6.70;;
56041;SDS011;48756;41.374;2.066;2023-02-11T06:39:54;12.03;;;6.67;;
56041;SDS011;48756;41.374;2.066;2023-02-11T06:42:20;9.00;;;6.93;;
56041;SDS011;48756;41.374;2.066;2023-02-11T06:44:45;9.20;;;6.67;;
56041;SDS011;48756;41.374;2.066;2023-02-11T06:47:11;8.33;;;7.23;;
56041;SDS011;48756;41.374;2.066;2023-02-11T06:49:36;11.60;;;8.70;;
56041;SDS011;48756;41.374;2.066;2023-02-11T06:52:02;13.77;;;7.87;;
56041;SDS011;48756;41.374;2.066;2023-02-11T06:54:27;14.97;;;9.80;;
56041;SDS011;48756;41.374;2.066;2023-02-11T06:56:53;9.70;;;6.70;;
56041;SDS011;48756;41.374;2.066;2023-02-11T06:59:19;8.20;;;6.07;;
56041;SDS011;48756;41.374;2.066;2023-02-11T07:01:45;8.73;;;7.72;;
56041;SDS011;48756;41.374;2.066;2023-02-11T07:04:11;13.13;;;9.65;;
56041;SDS011;48756;41.374;2.066;2023-02-11T07:06:38;11.40;;;8.27;;
56041;SDS011;48756;41.374;2.066;2023-02-11T07:09:04;12.35;;;7.47;;
56041;SDS011;48756;41.374;2.066;2023-02-11T07:11:30;10.52;;;8.10;;
56041;SDS011;48756;41.374;2.066;2023-02-11T07:14:00;8.95;;;6.85;;
56041;SDS011;48756;41.374;2.066;2023-02-11T07:16:27;8.95;;;8.05;;
56041;SDS011;48756;41.374;2.066;2023-02-11T07:18:53;9.27;;;6.80;;
56041;SDS011;48756;41.374;2.066;2023-02-11T07:21:19;9.50;;;6.63;;
56041;SDS011;48756;41.374;2.066;2023-02-11T07:23:49;11.55;;;7.45;;
56041;SDS011;48756;41.374;2.066;2023-02-11T07:26:16;7.75;;;6.07;;
56041;SDS011;48756;41.374;2.066;2023-02-11T07:28:44;13.30;;;8.80;;
56041;SDS011;48756;41.374;2.066;2023-02-11T07:31:28;9.68;;;7.65;;
56041;SDS011;48756;41.374;2.066;2023-02-11T07:33:55;15.32;;;8.38;;
56041;SDS011;48756;41.374;2.066;2023-02-11T07:36:24;12.43;;;7.82;;
56041;SDS011;48756;41.374;2.066;2023-02-11T07:38:50;9.02;;;6.68;;
56041;SDS011;48756;41.374;2.066;2023-02-11T07:41:16;13.23;;;6.07;;
56041;SDS011;48756;41.374;2.066;2023-02-11T07:43:44;8.95;;;6.63;;
56041;SDS011;48756;41.374;2.066;2023-02-11T07:46:11;12.00;;;8.48;;
56041;SDS011;48756;41.374;2.066;2023-02-11T07:48:42;12.15;;;7.90;;
56041;SDS011;48756;41.374;2.066;2023-02-11T07:53:40;13.10;;;7.40;;
56041;SDS011;48756;41.374;2.066;2023-02-11T07:56:07;9.10;;;7.05;;
56041;SDS011;48756;41.374;2.066;2023-02-11T07:58:33;8.25;;;6.43;;
56041;SDS011;48756;41.374;2.066;2023-02-11T08:01:00;11.10;;;7.47;;
56041;SDS011;48756;41.374;2.066;2023-02-11T08:03:27;9.32;;;5.65;;
56041;SDS011;48756;41.374;2.066;2023-02-11T08:05:53;10.85;;;6.47;;
56041;SDS011;48756;41.374;2.066;2023-02-11T08:08:19;10.32;;;6.63;;
56041;SDS011;48756;41.374;2.066;2023-02-11T08:10:44;10.53;;;6.73;;
56041;SDS011;48756;41.374;2.066;2023-02-11T08:13:10;9.83;;;6.17;;
56041;SDS011;48756;41.374;2.066;2023-02-11T08:15:35;9.97;;;6.97;;
56041;SDS011;48756;41.374;2.066;2023-02-11T08:18:01;9.17;;;6.73;;
56041;SDS011;48756;41.374;2.066;2023-02-11T08:20:26;20.47;;;5.93;;
56041;SDS011;48756;41.374;2.066;2023-02-11T08:22:52;4.83;;;4.17;;
56041;SDS011;48756;41.374;2.066;2023-02-11T08:25:17;12.23;;;8.37;;
56041;SDS011;48756;41.374;2.066;2023-02-11T08:27:43;7.53;;;5.83;;
56041;SDS011;48756;41.374;2.066;2023-02-11T08:30:09;13.33;;;6.93;;
56041;SDS011;48756;41.374;2.066;2023-02-11T08:32:35;11.30;;;7.13;;
56041;SDS011;48756;41.374;2.066;2023-02-11T08:35:00;13.50;;;7.07;;
56041;SDS011;48756;41.374;2.066;2023-02-11T08:37:26;14.90;;;9.30;;
56041;SDS011;48756;41.374;2.066;2023-02-11T08:39:51;9.87;;;7.73;;
56041;SDS011;48756;41.374;2.066;2023-02-11T08:42:17;11.63;;;7.30;;
56041;SDS011;48756;41.374;2.066;2023-02-11T08:44:42;9.63;;;5.47;;
56041;SDS011;48756;41.374;2.066;2023-02-11T08:47:08;10.97;;;8.23;;
56041;SDS011;48756;41.374;2.066;2023-02-11T08:49:33;9.53;;;7.43;;
56041;SDS011;48756;41.374;2.066;2023-02-11T08:52:00;9.95;;;6.30;;
56041;SDS011;48756;41.374;2.066;2023-02-11T08:54:28;8.27;;;6.88;;
56041;SDS011;48756;41.374;2.066;2023-02-11T08:56:54;7.90;;;5.55;;
56041;SDS011;48756;41.374;2.066;2023-02-11T08:59:20;11.48;;;5.55;;
56041;SDS011;48756;41.374;2.066;2023-02-11T09:01:46;12.93;;;8.32;;
56041;SDS011;48756;41.374;2.066;2023-02-11T09:04:12;9.00;;;6.22;;
56041;SDS011;48756;41.374;2.066;2023-02-11T09:06:38;10.45;;;6.80;;
56041;SDS011;48756;41.374;2.066;2023-02-11T09:09:04;11.32;;;8.57;;
56041;SDS011;48756;41.374;2.066;2023-02-11T09:11:31;12.83;;;8.00;;
56041;SDS011;48756;41.374;2.066;2023-02-11T09:13:58;9.20;;;6.30;;
56041;SDS011;48756;41.374;2.066;2023-02-11T09:16:25;10.43;;;8.68;;
56041;SDS011;48756;41.374;2.066;2023-02-11T09:18:53;10.13;;;8.38;;
56041;SDS011;48756;41.374;2.066;2023-02-11T09:21:21;12.43;;;8.85;;
56041;SDS011;48756;41.374;2.066;2023-02-11T09:23:46;12.70;;;9.27;;
56041;SDS011;48756;41.374;2.066;2023-02-11T09:26:13;12.80;;;9.17;;
56041;SDS011;48756;41.374;2.066;2023-02-11T09:28:40;11.07;;;7.05;;
56041;SDS011;48756;41.374;2.066;2023-02-11T09:31:07;12.80;;;8.40;;
56041;SDS011;48756;41.374;2.066;2023-02-11T09:33:35;10.85;;;8.68;;
56041;SDS011;48756;41.374;2.066;2023-02-11T09:36:02;11.90;;;8.68;;
56041;SDS011;48756;41.374;2.066;2023-02-11T09:38:34;9.85;;;8.18;;
56041;SDS011;48756;41.374;2.066;2023-02-11T09:40:59;10.07;;;7.07;;
56041;SDS011;48756;41.374;2.066;2023-02-11T09:43:38;12.88;;;8.23;;
56041;SDS011;48756;41.374;2.066;2023-02-11T09:46:14;9.90;;;7.85;;
56041;SDS011;48756;41.374;2.066;2023-02-11T09:48:41;8.30;;;6.65;;
56041;SDS011;48756;41.374;2.066;2023-02-11T09:51:15;8.95;;;6.70;;
56041;SDS011;48756;41.374;2.066;2023-02-11T09:53:44;13.63;;;9.25;;
56041;SDS011;48756;41.374;2.066;2023-02-11T09:56:15;9.10;;;6.43;;
56041;SDS011;48756;41.374;2.066;2023-02-11T09:58:42;9.90;;;6.82;;
56041;SDS011;48756;41.374;2.066;2023-02-11T10:06:48;8.80;;;6.55;;
56041;SDS011;48756;41.374;2.066;2023-02-11T10:22:44;9.07;;;6.27;;
56041;SDS011;48756;41.374;2.066;2023-02-11T10:27:43;7.70;;;6.30;;
56041;SDS011;48756;41.374;2.066;2023-02-11T10:32:54;8.23;;;4.55;;
56041;SDS011;48756;41.374;2.066;2023-02-11T10:35:26;7.70;;;5.38;;
56041;SDS011;48756;41.374;2.066;2023-02-11T10:37:52;8.35;;;5.68;;
56041;SDS011;48756;41.374;2.066;2023-02-11T10:40:27;9.25;;;4.82;;
56041;SDS011;48756;41.374;2.066;2023-02-11T10:42:55;8.77;;;4.97;;
56041;SDS011;48756;41.374;2.066;2023-02-11T10:45:35;6.90;;;5.97;;
56041;SDS011;48756;41.374;2.066;2023-02-11T10:48:05;5.43;;;4.70;;
56041;SDS011;48756;41.374;2.066;2023-02-11T10:50:53;9.00;;;5.15;;
56041;SDS011;48756;41.374;2.066;2023-02-11T10:56:20;15.33;;;6.17;;
56041;SDS011;48756;41.374;2.066;2023-02-11T10:58:59;9.52;;;4.95;;
56041;SDS011;48756;41.374;2.066;2023-02-11T11:01:50;6.15;;;4.78;;
56041;SDS011;48756;41.374;2.066;2023-02-11T11:04:33;7.88;;;5.47;;
56041;SDS011;48756;41.374;2.066;2023-02-11T11:07:09;6.93;;;4.15;;
56041;SDS011;48756;41.374;2.066;2023-02-11T11:09:46;8.88;;;5.20;;
56041;SDS011;48756;41.374;2.066;2023-02-11T11:20:32;9.05;;;6.22;;
56041;SDS011;48756;41.374;2.066;2023-02-11T11:23:19;12.00;;;5.32;;
56041;SDS011;48756;41.374;2.066;2023-02-11T11:28:30;7.45;;;4.47;;
56041;SDS011;48756;41.374;2.066;2023-02-11T11:31:02;4.63;;;3.45;;
56041;SDS011;48756;41.374;2.066;2023-02-11T11:33:30;8.05;;;4.32;;
56041;SDS011;48756;41.374;2.066;2023-02-11T11:36:06;7.88;;;4.57;;
56041;SDS011;48756;41.374;2.066;2023-02-11T11:38:35;5.70;;;3.60;;
56041;SDS011;48756;41.374;2.066;2023-02-11T11:41:17;6.78;;;3.45;;
56041;SDS011;48756;41.374;2.066;2023-02-11T11:46:46;6.30;;;4.68;;
56041;SDS011;48756;41.374;2.066;2023-02-11T11:49:21;16.77;;;3.25;;
56041;SDS011;48756;41.374;2.066;2023-02-11T11:54:57;5.93;;;4.18;;
56041;SDS011;48756;41.374;2.066;2023-02-11T11:57:32;5.47;;;2.55;;
56041;SDS011;48756;41.374;2.066;2023-02-11T12:00:01;5.53;;;3.25;;
56041;SDS011;48756;41.374;2.066;2023-02-11T12:02:40;7.43;;;2.88;;
56041;SDS011;48756;41.374;2.066;2023-02-11T12:05:25;6.88;;;2.45;;
56041;SDS011;48756;41.374;2.066;2023-02-11T12:10:34;3.47;;;2.58;;
56041;SDS011;48756;41.374;2.066;2023-02-11T12:13:33;4.70;;;3.47;;
56041;SDS011;48756;41.374;2.066;2023-02-11T12:21:29;3.97;;;2.60;;
56041;SDS011;48756;41.374;2.066;2023-02-11T12:24:06;6.22;;;4.22;;
56041;SDS011;48756;41.374;2.066;2023-02-11T12:26:51;3.55;;;2.67;;
56041;SDS011;48756;41.374;2.066;2023-02-11T12:35:07;13.73;;;5.40;;
56041;SDS011;48756;41.374;2.066;2023-02-11T12:40:20;7.88;;;5.63;;
56041;SDS011;48756;41.374;2.066;2023-02-11T12:45:57;11.02;;;7.05;;
56041;SDS011;48756;41.374;2.066;2023-02-11T12:51:33;8.60;;;6.53;;
56041;SDS011;48756;41.374;2.066;2023-02-11T12:59:24;11.75;;;7.40;;
56041;SDS011;48756;41.374;2.066;2023-02-11T13:02:14;13.57;;;7.47;;
56041;SDS011;48756;41.374;2.066;2023-02-11T13:04:53;12.50;;;8.15;;
56041;SDS011;48756;41.374;2.066;2023-02-11T13:07:35;14.55;;;8.05;;
56041;SDS011;48756;41.374;2.066;2023-02-11T13:12:46;12.02;;;9.25;;
56041;SDS011;48756;41.374;2.066;2023-02-11T13:15:50;13.35;;;8.48;;
56041;SDS011;48756;41.374;2.066;2023-02-11T13:24:07;7.75;;;5.35;;
56041;SDS011;48756;41.374;2.066;2023-02-11T13:32:12;8.88;;;6.85;;
56041;SDS011;48756;41.374;2.066;2023-02-11T13:42:28;6.28;;;5.15;;
56041;SDS011;48756;41.374;2.066;2023-02-11T13:44:56;8.07;;;4.72;;
56041;SDS011;48756;41.374;2.066;2023-02-11T13:47:26;7.07;;;4.25;;
56041;SDS011;48756;41.374;2.066;2023-02-11T13:49:55;7.65;;;4.60;;
56041;SDS011;48756;41.374;2.066;2023-02-11T13:54:56;7.45;;;5.75;;
56041;SDS011;48756;41.374;2.066;2023-02-11T13:57:29;4.53;;;3.75;;
56041;SDS011;48756;41.374;2.066;2023-02-11T13:59:58;5.07;;;3.88;;
56041;SDS011;48756;41.374;2.066;2023-02-11T14:02:42;6.60;;;4.63;;
56041;SDS011;48756;41.374;2.066;2023-02-11T14:05:28;5.75;;;3.50;;
56041;SDS011;48756;41.374;2.066;2023-02-11T14:08:18;4.80;;;2.78;;
56041;SDS011;48756;41.374;2.066;2023-02-11T14:16:13;4.63;;;3.13;;
56041;SDS011;48756;41.374;2.066;2023-02-11T14:23:40;7.05;;;4.18;;
56041;SDS011;48756;41.374;2.066;2023-02-11T14:28:48;17.92;;;5.10;;
56041;SDS011;48756;41.374;2.066;2023-02-11T14:31:22;4.90;;;3.80;;
56041;SDS011;48756;41.374;2.066;2023-02-11T14:39:55;5.47;;;3.47;;
56041;SDS011;48756;41.374;2.066;2023-02-11T14:42:32;5.13;;;3.60;;
56041;SDS011;48756;41.374;2.066;2023-02-11T14:45:05;6.20;;;4.00;;
56041;SDS011;48756;41.374;2.066;2023-02-11T14:47:40;4.20;;;3.17;;
56041;SDS011;48756;41.374;2.066;2023-02-11T14:50:14;4.25;;;2.40;;
56041;SDS011;48756;41.374;2.066;2023-02-11T14:52:50;6.28;;;3.72;;
56041;SDS011;48756;41.374;2.066;2023-02-11T14:58:36;4.75;;;3.00;;
56041;SDS011;48756;41.374;2.066;2023-02-11T15:00:49;2.50;;;2.10;;
56041;SDS011;48756;41.374;2.066;2023-02-11T15:03:24;3.50;;;2.35;;
56041;SDS011;48756;41.374;2.066;2023-02-11T15:05:55;5.35;;;1.88;;
56041;SDS011;48756;41.374;2.066;2023-02-11T15:08:33;4.15;;;2.05;;
56041;SDS011;48756;41.374;2.066;2023-02-11T15:11:02;3.13;;;1.60;;
56041;SDS011;48756;41.374;2.066;2023-02-11T15:13:34;1.77;;;1.33;;
56041;SDS011;48756;41.374;2.066;2023-02-11T15:16:02;2.67;;;0.98;;
56041;SDS011;48756;41.374;2.066;2023-02-11T15:18:40;2.55;;;1.00;;
56041;SDS011;48756;41.374;2.066;2023-02-11T15:21:09;1.88;;;1.48;;
56041;SDS011;48756;41.374;2.066;2023-02-11T15:23:35;3.13;;;0.93;;
56041;SDS011;48756;41.374;2.066;2023-02-11T15:26:01;1.90;;;0.88;;
56041;SDS011;48756;41.374;2.066;2023-02-11T15:28:31;2.83;;;0.75;;
56041;SDS011;48756;41.374;2.066;2023-02-11T15:31:03;1.23;;;0.90;;
56041;SDS011;48756;41.374;2.066;2023-02-11T15:33:49;1.08;;;0.50;;
56041;SDS011;48756;41.374;2.066;2023-02-11T15:38:41;2.95;;;1.40;;
56041;SDS011;48756;41.374;2.066;2023-02-11T15:41:07;1.60;;;0.90;;
56041;SDS011;48756;41.374;2.066;2023-02-11T15:43:52;1.50;;;0.82;;
56041;SDS011;48756;41.374;2.066;2023-02-11T15:46:19;3.47;;;1.05;;
56041;SDS011;48756;41.374;2.066;2023-02-11T15:48:50;1.98;;;1.20;;
56041;SDS011;48756;41.374;2.066;2023-02-11T15:51:33;1.25;;;0.95;;
56041;SDS011;48756;41.374;2.066;2023-02-11T15:54:14;2.22;;;0.70;;
56041;SDS011;48756;41.374;2.066;2023-02-11T15:56:41;0.70;;;0.50;;
56041;SDS011;48756;41.374;2.066;2023-02-11T16:01:46;5.45;;;0.85;;
56041;SDS011;48756;41.374;2.066;2023-02-11T16:04:16;1.77;;;1.00;;
56041;SDS011;48756;41.374;2.066;2023-02-11T16:06:44;2.88;;;1.10;;
56041;SDS011;48756;41.374;2.066;2023-02-11T16:19:35;3.60;;;0.90;;
56041;SDS011;48756;41.374;2.066;2023-02-11T16:22:07;3.10;;;0.80;;
56041;SDS011;48756;41.374;2.066;2023-02-11T16:24:35;3.20;;;1.17;;
56041;SDS011;48756;41.374;2.066;2023-02-11T16:27:22;0.80;;;0.30;;
56041;SDS011;48756;41.374;2.066;2023-02-11T16:29:48;7.53;;;1.13;;
56041;SDS011;48756;41.374;2.066;2023-02-11T16:32:22;2.50;;;0.85;;
56041;SDS011;48756;41.374;2.066;2023-02-11T16:34:51;4.03;;;1.77;;
56041;SDS011;48756;41.374;2.066;2023-02-11T16:37:17;1.52;;;0.70;;
56041;SDS011;48756;41.374;2.066;2023-02-11T16:39:43;1.92;;;0.90;;
56041;SDS011;48756;41.374;2.066;2023-02-11T16:42:09;2.13;;;1.25;;
56041;SDS011;48756;41.374;2.066;2023-02-11T16:44:35;4.68;;;0.77;;
56041;SDS011;48756;41.374;2.066;2023-02-11T16:47:01;1.92;;;1.40;;
56041;SDS011;48756;41.374;2.066;2023-02-11T16:49:46;3.10;;;1.08;;
56041;SDS011;48756;41.374;2.066;2023-02-11T16:52:12;1.95;;;0.60;;
56041;SDS011;48756;41.374;2.066;2023-02-11T16:54:42;1.27;;;0.85;;
56041;SDS011;48756;41.374;2.066;2023-02-11T16:57:10;3.70;;;1.80;;
56041;SDS011;48756;41.374;2.066;2023-02-11T16:59:39;2.25;;;1.23;;
56041;SDS011;48756;41.374;2.066;2023-02-11T17:02:07;2.03;;;0.95;;
56041;SDS011;48756;41.374;2.066;2023-02-11T17:04:38;3.58;;;1.02;;
56041;SDS011;48756;41.374;2.066;2023-02-11T17:07:04;1.33;;;0.90;;
56041;SDS011;48756;41.374;2.066;2023-02-11T17:09:35;1.60;;;0.90;;
56041;SDS011;48756;41.374;2.066;2023-02-11T17:12:01;5.63;;;1.00;;
56041;SDS011;48756;41.374;2.066;2023-02-11T17:14:27;2.57;;;1.17;;
56041;SDS011;48756;41.374;2.066;2023-02-11T17:16:52;1.52;;;1.25;;
56041;SDS011;48756;41.374;2.066;2023-02-11T17:19:18;1.30;;;0.80;;
56041;SDS011;48756;41.374;2.066;2023-02-11T17:21:48;1.27;;;1.17;;
56041;SDS011;48756;41.374;2.066;2023-02-11T17:24:15;2.17;;;1.10;;
56041;SDS011;48756;41.374;2.066;2023-02-11T17:26:41;1.75;;;1.10;;
56041;SDS011;48756;41.374;2.066;2023-02-11T17:29:08;5.55;;;1.85;;
56041;SDS011;48756;41.374;2.066;2023-02-11T17:31:35;2.28;;;1.27;;
56041;SDS011;48756;41.374;2.066;2023-02-11T17:34:01;3.00;;;1.15;;
56041;SDS011;48756;41.374;2.066;2023-02-11T17:36:27;4.05;;;1.33;;
56041;SDS011;48756;41.374;2.066;2023-02-11T17:38:55;1.50;;;1.30;;
56041;SDS011;48756;41.374;2.066;2023-02-11T17:41:22;1.67;;;1.17;;
56041;SDS011;48756;41.374;2.066;2023-02-11T17:43:48;2.47;;;1.60;;
56041;SDS011;48756;41.374;2.066;2023-02-11T17:46:13;2.08;;;1.25;;
56041;SDS011;48756;41.374;2.066;2023-02-11T17:48:39;3.00;;;1.30;;
56041;SDS011;48756;41.374;2.066;2023-02-11T17:51:05;1.98;;;1.60;;
56041;SDS011;48756;41.374;2.066;2023-02-11T17:53:44;3.33;;;2.15;;
56041;SDS011;48756;41.374;2.066;2023-02-11T17:56:10;3.83;;;2.28;;
56041;SDS011;48756;41.374;2.066;2023-02-11T17:58:36;5.38;;;2.60;;
56041;SDS011;48756;41.374;2.066;2023-02-11T18:01:02;3.47;;;2.20;;